Un Akdeniz — TCTD2 — position and weather

sailwx.info

Track history (hours):
 
Tides and Currents Weather Stations Pressure Air Temp Water Temp Dewpoint Dewpoint Depression Visibility Wind Speed Wind Dir Waves Ship Positions

Un Akdeniz

Last reported at 2014-Jul-23 14:32 UTC. Time now 2014-Jul-23 16:06 UTC.
Position N 40°45' E 027°53'.

Length 193 m; draft 7 m.

Type: Ship (hazmat cat A). MMSI: 271002572.

Date/timePositionNaut miles runAvg speedWind from/ knotsBaromVisibWave heightAir tempDewpointWater temp
2014-Jul-23 14:32N 40°45' E 027°53'5717.7
2014-Jul-23 11:21N 40°25' E 026°44'4614.5
2014-Jul-23 08:11N 39°56' E 025°58'1818.8
2014-Jul-23 07:13N 39°40' E 025°45'11719.1
2014-Jul-23 01:07N 37°56' E 024°38'1319.7
2014-Jul-23 00:27N 37°44' E 024°31'2219.2
2014-Jul-22 23:19N 37°25' E 024°17'1418.9
2014-Jul-22 22:33N 37°14' E 024°06'1918.8
2014-Jul-22 21:33N 36°59' E 023°52'1918.9
2014-Jul-22 20:33N 36°43' E 023°39'2019.1
2014-Jul-22 19:32N 36°30' E 023°21'1818.4
2014-Jul-22 18:32N 36°24' E 022°59'79018.3
2014-Jul-20 23:26N 42°02' E 007°38'1719.3
2014-Jul-20 22:33N 42°12' E 007°20'1919.4
2014-Jul-20 21:33N 42°23' E 006°59'1919.3
2014-Jul-20 20:33N 42°35' E 006°38'1919.1
2014-Jul-20 19:33N 42°46' E 006°16'1817.6
2014-Jul-20 18:33N 42°58' E 005°59'9 2.9
2014-Jul-20 15:24N 43°06' E 005°54'0 0.0
2014-Jul-20 13:29N 43°06' E 005°54'0 0.0
2014-Jul-20 12:04N 43°06' E 005°54'0 0.0
2014-Jul-20 11:28N 43°06' E 005°54'0 0.0
2014-Jul-20 10:31N 43°06' E 005°54'0 0.0
2014-Jul-20 08:27N 43°06' E 005°54'0 0.0
2014-Jul-20 07:26N 43°06' E 005°54'0 0.0
2014-Jul-20 06:29N 43°06' E 005°54'0 0.0
2014-Jul-20 05:13N 43°06' E 005°54'0 0.0
2014-Jul-20 04:31N 43°06' E 005°54'0 0.3
2014-Jul-20 03:33N 43°06' E 005°54'10 9.9
2014-Jul-20 02:33N 42°59' E 006°03'1817.9
2014-Jul-20 01:33N 42°45' E 006°18'2019.8
2014-Jul-20 00:33N 42°34' E 006°41'2019.6
2014-Jul-19 23:33N 42°23' E 007°02'1919.4
2014-Jul-19 22:33N 42°12' E 007°24'2019.5
2014-Jul-19 21:33N 42°00' E 007°45'2019.6
2014-Jul-19 20:33N 41°49' E 008°06'2019.5
2014-Jul-19 19:33N 41°37' E 008°28'2019.7
2014-Jul-19 18:33N 41°26' E 008°49'2019.8
2014-Jul-19 17:33N 41°18' E 009°13'2117.1
2014-Jul-19 16:19N 41°14' E 009°41'1418.5
2014-Jul-19 15:33N 41°07' E 009°57'1818.5
2014-Jul-19 14:33N 40°57' E 010°18'1919.0
2014-Jul-19 13:33N 40°47' E 010°40'2019.5
2014-Jul-19 12:32N 40°37' E 011°02'2019.2
2014-Jul-19 11:29N 40°27' E 011°25'8219.2
2014-Jul-19 07:13N 39°45' E 012°56'1319.4
2014-Jul-19 06:33N 39°38' E 013°11'1919.2
2014-Jul-19 05:33N 39°29' E 013°32'1919.5
2014-Jul-19 04:33N 39°18' E 013°54'2019.3
2014-Jul-19 03:32N 39°08' E 014°16'1919.3
2014-Jul-19 02:33N 38°59' E 014°37'5819.0
2014-Jul-18 23:30N 38°23' E 015°35'1414.2
2014-Jul-18 22:32N 38°10' E 015°36'38817.5
2014-Jul-18 00:22N 36°51' E 023°35'1619.7
2014-Jul-17 23:33N 37°03' E 023°48'2019.6
2014-Jul-17 22:33N 37°18' E 024°05'2019.5
2014-Jul-17 21:33N 37°32' E 024°22'1918.7
2014-Jul-17 20:31N 37°50' E 024°32'4119.7
2014-Jul-17 18:24N 38°27' E 024°54'2419.6
2014-Jul-17 17:12N 38°49' E 025°07'3319.8
2014-Jul-17 15:31N 39°19' E 025°26'  
2014-Jul-14 11:31N 40°51' E 029°16'0 0.0
2014-Jul-14 10:30N 40°51' E 029°16'0 0.0
2014-Jul-14 09:30N 40°51' E 029°16'0 0.0
2014-Jul-14 08:29N 40°51' E 029°16'0 0.0
2014-Jul-14 07:29N 40°51' E 029°16'0 0.0
2014-Jul-14 06:28N 40°51' E 029°16'  
Track history (hours):
 
Tides and Currents Weather Stations Pressure Air Temp Water Temp Dewpoint Dewpoint Depression Visibility Wind Speed Wind Dir Waves Ship Positions

Un Akdeniz

Last reported at 2014-Jul-23 14:32 UTC. Time now 2014-Jul-23 16:06 UTC.
Position N 40°45' E 027°53'.

Length 193 m; draft 7 m.

Type: Ship (hazmat cat A). MMSI: 271002572.

Date/timePositionNaut miles runAvg speedWind from/ knotsBaromVisibWave heightAir tempDewpointWater temp
2014-Jul-23 14:32N 40°45' E 027°53'5717.7
2014-Jul-23 11:21N 40°25' E 026°44'4614.5
2014-Jul-23 08:11N 39°56' E 025°58'1818.8
2014-Jul-23 07:13N 39°40' E 025°45'11719.1
2014-Jul-23 01:07N 37°56' E 024°38'1319.7
2014-Jul-23 00:27N 37°44' E 024°31'2219.2
2014-Jul-22 23:19N 37°25' E 024°17'1418.9
2014-Jul-22 22:33N 37°14' E 024°06'1918.8
2014-Jul-22 21:33N 36°59' E 023°52'1918.9
2014-Jul-22 20:33N 36°43' E 023°39'2019.1
2014-Jul-22 19:32N 36°30' E 023°21'1818.4
2014-Jul-22 18:32N 36°24' E 022°59'79018.3
2014-Jul-20 23:26N 42°02' E 007°38'1719.3
2014-Jul-20 22:33N 42°12' E 007°20'1919.4
2014-Jul-20 21:33N 42°23' E 006°59'1919.3
2014-Jul-20 20:33N 42°35' E 006°38'1919.1
2014-Jul-20 19:33N 42°46' E 006°16'1817.6
2014-Jul-20 18:33N 42°58' E 005°59'9 2.9
2014-Jul-20 15:24N 43°06' E 005°54'0 0.0
2014-Jul-20 13:29N 43°06' E 005°54'0 0.0
2014-Jul-20 12:04N 43°06' E 005°54'0 0.0
2014-Jul-20 11:28N 43°06' E 005°54'0 0.0
2014-Jul-20 10:31N 43°06' E 005°54'0 0.0
2014-Jul-20 08:27N 43°06' E 005°54'0 0.0
2014-Jul-20 07:26N 43°06' E 005°54'0 0.0
2014-Jul-20 06:29N 43°06' E 005°54'0 0.0
2014-Jul-20 05:13N 43°06' E 005°54'0 0.0
2014-Jul-20 04:31N 43°06' E 005°54'0 0.3
2014-Jul-20 03:33N 43°06' E 005°54'10 9.9
2014-Jul-20 02:33N 42°59' E 006°03'1817.9
2014-Jul-20 01:33N 42°45' E 006°18'2019.8
2014-Jul-20 00:33N 42°34' E 006°41'2019.6
2014-Jul-19 23:33N 42°23' E 007°02'1919.4
2014-Jul-19 22:33N 42°12' E 007°24'2019.5
2014-Jul-19 21:33N 42°00' E 007°45'2019.6
2014-Jul-19 20:33N 41°49' E 008°06'2019.5
2014-Jul-19 19:33N 41°37' E 008°28'2019.7
2014-Jul-19 18:33N 41°26' E 008°49'2019.8
2014-Jul-19 17:33N 41°18' E 009°13'2117.1
2014-Jul-19 16:19N 41°14' E 009°41'1418.5
2014-Jul-19 15:33N 41°07' E 009°57'1818.5
2014-Jul-19 14:33N 40°57' E 010°18'1919.0
2014-Jul-19 13:33N 40°47' E 010°40'2019.5
2014-Jul-19 12:32N 40°37' E 011°02'2019.2
2014-Jul-19 11:29N 40°27' E 011°25'8219.2
2014-Jul-19 07:13N 39°45' E 012°56'1319.4
2014-Jul-19 06:33N 39°38' E 013°11'1919.2
2014-Jul-19 05:33N 39°29' E 013°32'1919.5
2014-Jul-19 04:33N 39°18' E 013°54'2019.3
2014-Jul-19 03:32N 39°08' E 014°16'1919.3
2014-Jul-19 02:33N 38°59' E 014°37'5819.0
2014-Jul-18 23:30N 38°23' E 015°35'1414.2
2014-Jul-18 22:32N 38°10' E 015°36'38817.5
2014-Jul-18 00:22N 36°51' E 023°35'1619.7
2014-Jul-17 23:33N 37°03' E 023°48'2019.6
2014-Jul-17 22:33N 37°18' E 024°05'2019.5
2014-Jul-17 21:33N 37°32' E 024°22'1918.7
2014-Jul-17 20:31N 37°50' E 024°32'4119.7
2014-Jul-17 18:24N 38°27' E 024°54'2419.6
2014-Jul-17 17:12N 38°49' E 025°07'3319.8
2014-Jul-17 15:31N 39°19' E 025°26'  
2014-Jul-14 11:31N 40°51' E 029°16'0 0.0
2014-Jul-14 10:30N 40°51' E 029°16'0 0.0
2014-Jul-14 09:30N 40°51' E 029°16'0 0.0
2014-Jul-14 08:29N 40°51' E 029°16'0 0.0
2014-Jul-14 07:29N 40°51' E 029°16'0 0.0
2014-Jul-14 06:28N 40°51' E 029°16'  

Dump ship's entire track history